Time;durP1;ratioP1;P1;durP2;ratioP2;P2;SDS_P1;SDS_P2;PMS_P1;PMS_P2;Temp;Humidity;BMP_temperature;BMP_pressure;BME280_temperature;BME280_humidity;BME280_pressure;Samples;Min_cycle;Max_cycle;Signal;HPM_P1;HPM_P2
2023/06/03 00:01:41;;;;;;;4.60;3.70;;;;;;;;;;4405023;32;416018;-83
2023/06/03 00:04:14;;;;;;;6.72;3.95;;;;;;;;;;4416671;32;316763;-84
2023/06/03 00:06:41;;;;;;;8.85;3.80;;;;;;;;;;4404853;32;386262;-83
2023/06/03 00:09:09;;;;;;;5.87;3.92;;;;;;;;;;4415808;32;352319;-82
2023/06/03 00:11:37;;;;;;;6.32;3.40;;;;;;;;;;4406834;32;316881;-84
2023/06/03 00:14:05;;;;;;;5.18;3.67;;;;;;;;;;4416818;32;316834;-84
2023/06/03 00:16:33;;;;;;;4.75;3.65;;;;;;;;;;4407536;32;316917;-82
2023/06/03 00:19:01;;;;;;;6.10;3.58;;;;;;;;;;4416176;32;316791;-82
2023/06/03 00:21:29;;;;;;;5.07;3.60;;;;;;;;;;4406267;32;317071;-83
2023/06/03 00:23:57;;;;;;;6.18;3.92;;;;;;;;;;4416150;32;316418;-83
2023/06/03 00:26:25;;;;;;;7.72;3.35;;;;;;;;;;4407528;32;317322;-82
2023/06/03 00:28:53;;;;;;;6.10;3.83;;;;;;;;;;4416144;32;316817;-82
2023/06/03 00:31:20;;;;;;;4.80;3.80;;;;;;;;;;4407018;32;316993;-85
2023/06/03 00:33:47;;;;;;;5.50;3.78;;;;;;;;;;4417086;32;316909;-82
2023/06/03 00:36:15;;;;;;;5.40;4.03;;;;;;;;;;4416289;32;316849;-82
2023/06/03 00:38:44;;;;;;;6.40;3.80;;;;;;;;;;4403798;32;416215;-85
2023/06/03 00:41:11;;;;;;;5.18;3.70;;;;;;;;;;4417465;32;316964;-84
2023/06/03 00:43:39;;;;;;;6.50;4.28;;;;;;;;;;4405197;32;332501;-83
2023/06/03 00:46:10;;;;;;;6.18;3.72;;;;;;;;;;4417400;32;316709;-84
2023/06/03 00:48:38;;;;;;;5.30;3.30;;;;;;;;;;4405405;32;317038;-82
2023/06/03 00:51:08;;;;;;;5.55;2.83;;;;;;;;;;4417376;32;316752;-85
2023/06/03 00:53:35;;;;;;;6.53;3.40;;;;;;;;;;4404976;32;316694;-82
2023/06/03 00:56:05;;;;;;;8.77;3.87;;;;;;;;;;4416834;32;315531;-82
2023/06/03 00:58:33;;;;;;;5.30;3.65;;;;;;;;;;4404450;32;317013;-82
2023/06/03 01:01:01;;;;;;;7.22;3.35;;;;;;;;;;4416928;32;316981;-82
2023/06/03 01:03:28;;;;;;;8.75;3.72;;;;;;;;;;4403778;32;316828;-81
2023/06/03 01:06:05;;;;;;;4.03;3.17;;;;;;;;;;4417077;32;316948;-81
2023/06/03 01:08:43;;;;;;;7.43;3.75;;;;;;;;;;4406919;32;317057;-82
2023/06/03 01:11:21;;;;;;;6.68;4.30;;;;;;;;;;4415357;32;316896;-82
2023/06/03 01:13:55;;;;;;;9.25;3.45;;;;;;;;;;4402211;32;416132;-82
2023/06/03 01:16:25;;;;;;;8.30;3.47;;;;;;;;;;4405123;32;316841;-82
2023/06/03 01:18:53;;;;;;;4.57;3.25;;;;;;;;;;4418662;32;315531;-82
2023/06/03 01:21:24;;;;;;;8.80;3.75;;;;;;;;;;4405017;32;316728;-82
2023/06/03 01:23:53;;;;;;;7.03;3.22;;;;;;;;;;4416912;32;316713;-82
2023/06/03 01:26:22;;;;;;;6.18;4.00;;;;;;;;;;4406814;32;316667;-82
2023/06/03 01:28:49;;;;;;;8.93;3.75;;;;;;;;;;4395050;32;317197;-83
2023/06/03 01:31:18;;;;;;;5.28;3.37;;;;;;;;;;4415145;32;316516;-82
2023/06/03 01:33:47;;;;;;;3.85;2.95;;;;;;;;;;4416108;32;316687;-82
2023/06/03 01:36:15;;;;;;;6.22;3.70;;;;;;;;;;4402520;32;416260;-82
2023/06/03 01:38:42;;;;;;;4.32;2.97;;;;;;;;;;4415425;32;316596;-82
2023/06/03 01:41:11;;;;;;;3.60;3.25;;;;;;;;;;4406433;32;316679;-82
2023/06/03 01:43:39;;;;;;;4.15;3.62;;;;;;;;;;4416622;32;316476;-82
2023/06/03 01:46:06;;;;;;;10.73;4.00;;;;;;;;;;4404674;32;316569;-82
2023/06/03 01:48:34;;;;;;;3.75;3.03;;;;;;;;;;4415473;32;317542;-83
2023/06/03 01:51:02;;;;;;;8.85;3.45;;;;;;;;;;4405590;32;316642;-82
2023/06/03 01:53:29;;;;;;;5.55;3.65;;;;;;;;;;4415740;32;324088;-82
2023/06/03 01:55:57;;;;;;;9.95;3.47;;;;;;;;;;4406195;32;316815;-82
2023/06/03 01:58:25;;;;;;;5.97;3.72;;;;;;;;;;4415621;32;316718;-82
2023/06/03 02:00:53;;;;;;;6.50;3.72;;;;;;;;;;4406046;32;316434;-83
2023/06/03 02:03:20;;;;;;;6.18;3.92;;;;;;;;;;4414060;32;316682;-81
2023/06/03 02:05:48;;;;;;;5.25;3.95;;;;;;;;;;4401557;32;316423;-82
2023/06/03 02:08:16;;;;;;;6.65;3.67;;;;;;;;;;4413819;32;316369;-82
2023/06/03 02:13:31;;;;;;;7.75;4.15;;;;;;;;;;4402982;32;388888;-82
2023/06/03 02:15:59;;;;;;;4.37;3.70;;;;;;;;;;4408351;32;318540;-82
2023/06/03 02:18:31;;;;;;;5.80;3.80;;;;;;;;;;4415408;32;317199;-85
2023/06/03 02:21:02;;;;;;;7.80;4.32;;;;;;;;;;4401900;32;316646;-83
2023/06/03 02:23:30;;;;;;;5.28;4.10;;;;;;;;;;4402866;32;316916;-82
2023/06/03 02:25:58;;;;;;;3.50;3.15;;;;;;;;;;4376742;32;316903;-82
2023/06/03 02:28:28;;;;;;;3.83;3.00;;;;;;;;;;4386906;32;334635;-82
2023/06/03 02:30:56;;;;;;;3.78;2.95;;;;;;;;;;4376144;32;316625;-86
2023/06/03 02:33:23;;;;;;;4.20;3.35;;;;;;;;;;4387903;32;345410;-85
2023/06/03 02:35:51;;;;;;;5.37;3.25;;;;;;;;;;4377946;32;316755;-82
2023/06/03 02:38:18;;;;;;;3.62;3.10;;;;;;;;;;4386298;32;316824;-82
2023/06/03 02:40:46;;;;;;;3.80;3.30;;;;;;;;;;4388313;32;316618;-82
2023/06/03 02:43:14;;;;;;;5.30;2.85;;;;;;;;;;4363657;32;419071;-82
2023/06/03 02:45:43;;;;;;;6.20;3.50;;;;;;;;;;4371343;32;347022;-82
2023/06/03 02:48:10;;;;;;;3.55;3.25;;;;;;;;;;4361256;32;347352;-85
2023/06/03 02:50:38;;;;;;;4.78;3.92;;;;;;;;;;4373730;32;316681;-82
2023/06/03 02:53:07;;;;;;;6.18;3.22;;;;;;;;;;4361720;32;338306;-82
2023/06/03 02:55:36;;;;;;;3.40;3.10;;;;;;;;;;4372984;32;316803;-82
2023/06/03 02:58:04;;;;;;;9.10;3.35;;;;;;;;;;4362823;32;317005;-85
2023/06/03 03:00:31;;;;;;;4.35;3.08;;;;;;;;;;4373461;32;316748;-85
2023/06/03 03:03:01;;;;;;;3.67;2.95;;;;;;;;;;4362631;32;316943;-86
2023/06/03 03:05:30;;;;;;;7.95;3.03;;;;;;;;;;4373246;32;316731;-82
2023/06/03 03:07:58;;;;;;;5.65;4.05;;;;;;;;;;4361790;32;316805;-82
2023/06/03 03:10:26;;;;;;;11.70;3.70;;;;;;;;;;4372133;32;316593;-82
2023/06/03 03:12:54;;;;;;;12.93;3.87;;;;;;;;;;4362558;32;317928;-86
2023/06/03 03:15:21;;;;;;;8.82;3.62;;;;;;;;;;4371364;32;346444;-82
2023/06/03 03:17:49;;;;;;;5.70;4.15;;;;;;;;;;4358127;32;316719;-85
2023/06/03 03:20:18;;;;;;;4.40;3.35;;;;;;;;;;4372724;32;316597;-82
2023/06/03 03:22:45;;;;;;;6.30;3.58;;;;;;;;;;4372280;32;316763;-82
2023/06/03 03:25:13;;;;;;;10.00;4.10;;;;;;;;;;4365492;32;415970;-82
2023/06/03 03:27:41;;;;;;;5.75;3.85;;;;;;;;;;4371115;32;317643;-82
2023/06/03 03:30:10;;;;;;;7.07;3.95;;;;;;;;;;4363130;32;316798;-85
2023/06/03 03:32:38;;;;;;;6.53;3.80;;;;;;;;;;4371757;32;316782;-83
2023/06/03 03:35:16;;;;;;;6.50;4.53;;;;;;;;;;4361924;32;316630;-86
2023/06/03 03:37:45;;;;;;;5.32;4.35;;;;;;;;;;4371332;32;316829;-83
2023/06/03 03:40:19;;;;;;;6.22;4.20;;;;;;;;;;4358693;32;419585;-82
2023/06/03 03:42:51;;;;;;;3.62;3.30;;;;;;;;;;4362397;32;316725;-83
2023/06/03 03:45:20;;;;;;;6.20;4.10;;;;;;;;;;4371361;32;316597;-83
2023/06/03 03:47:50;;;;;;;4.82;3.58;;;;;;;;;;4359986;32;332647;-82
2023/06/03 03:50:37;;;;;;;6.72;4.32;;;;;;;;;;4371599;32;316817;-84
2023/06/03 03:53:07;;;;;;;8.05;4.85;;;;;;;;;;4361608;32;316790;-84
2023/06/03 03:55:39;;;;;;;16.20;4.60;;;;;;;;;;4372824;32;316765;-84
2023/06/03 03:58:15;;;;;;;6.75;4.28;;;;;;;;;;4361394;32;317972;-84
2023/06/03 04:00:43;;;;;;;6.15;4.25;;;;;;;;;;4372650;32;317041;-84
2023/06/03 04:03:13;;;;;;;7.45;4.10;;;;;;;;;;4361092;32;316796;-87
2023/06/03 04:05:41;;;;;;;6.18;4.12;;;;;;;;;;4372189;32;324240;-83
2023/06/03 04:08:10;;;;;;;7.18;5.03;;;;;;;;;;4362403;32;316925;-83
2023/06/03 04:10:37;;;;;;;7.40;5.47;;;;;;;;;;4371681;32;316782;-83
2023/06/03 04:13:06;;;;;;;8.63;4.93;;;;;;;;;;4359573;32;316778;-86
2023/06/03 04:15:35;;;;;;;4.78;4.28;;;;;;;;;;4371274;32;316745;-83
2023/06/03 04:18:03;;;;;;;9.50;4.60;;;;;;;;;;4361359;32;317002;-82
2023/06/03 04:20:43;;;;;;;6.30;4.62;;;;;;;;;;4372232;32;316510;-83
2023/06/03 04:23:19;;;;;;;12.95;8.57;;;;;;;;;;4362199;32;316724;-83
2023/06/03 04:25:47;;;;;;;10.77;8.30;;;;;;;;;;4361311;32;317696;-84
2023/06/03 04:28:14;;;;;;;11.15;6.50;;;;;;;;;;4371691;32;317924;-83
2023/06/03 04:30:41;;;;;;;13.85;5.70;;;;;;;;;;4371040;32;317730;-83
2023/06/03 04:33:09;;;;;;;7.50;5.50;;;;;;;;;;4361539;32;317736;-82
2023/06/03 04:35:36;;;;;;;4.97;4.43;;;;;;;;;;4370651;32;316756;-83
2023/06/03 04:38:04;;;;;;;7.40;4.70;;;;;;;;;;4361338;32;316715;-85
2023/06/03 04:40:33;;;;;;;11.68;4.15;;;;;;;;;;4371431;32;319052;-86
2023/06/03 04:43:03;;;;;;;5.28;4.10;;;;;;;;;;4354430;32;317932;-83
2023/06/03 04:45:32;;;;;;;7.68;4.45;;;;;;;;;;4379824;32;317188;-82
2023/06/03 04:48:01;;;;;;;9.80;4.20;;;;;;;;;;4361311;32;317149;-82
2023/06/03 04:50:35;;;;;;;5.60;4.12;;;;;;;;;;4370774;32;316795;-82
2023/06/03 04:53:03;;;;;;;7.35;3.87;;;;;;;;;;4359595;32;316724;-82
2023/06/03 04:55:32;;;;;;;5.87;4.20;;;;;;;;;;4371723;32;316852;-82
2023/06/03 04:58:02;;;;;;;5.80;4.45;;;;;;;;;;4360119;32;316762;-83
2023/06/03 05:00:30;;;;;;;5.10;4.43;;;;;;;;;;4371811;32;316758;-83
2023/06/03 05:02:59;;;;;;;6.97;4.28;;;;;;;;;;4360723;32;316723;-87
2023/06/03 05:05:27;;;;;;;6.95;3.72;;;;;;;;;;4369625;32;316874;-84
2023/06/03 05:07:55;;;;;;;5.37;4.50;;;;;;;;;;4360304;32;316835;-83
2023/06/03 05:10:22;;;;;;;6.95;4.90;;;;;;;;;;4371725;32;316769;-83
2023/06/03 05:12:51;;;;;;;6.45;5.03;;;;;;;;;;4359554;32;316920;-85
2023/06/03 05:15:19;;;;;;;9.73;5.70;;;;;;;;;;4370429;32;316554;-83
2023/06/03 05:17:46;;;;;;;10.63;5.78;;;;;;;;;;4370386;32;316925;-83
2023/06/03 05:20:14;;;;;;;9.13;5.50;;;;;;;;;;4357847;32;419694;-84
2023/06/03 05:22:41;;;;;;;9.70;5.05;;;;;;;;;;4370912;32;316834;-84
2023/06/03 05:25:09;;;;;;;11.43;6.30;;;;;;;;;;4360255;32;316581;-87
2023/06/03 05:27:37;;;;;;;15.23;5.60;;;;;;;;;;4369174;32;317906;-85
2023/06/03 05:30:07;;;;;;;18.02;5.60;;;;;;;;;;4360136;32;317884;-85
2023/06/03 05:32:34;;;;;;;16.58;5.20;;;;;;;;;;4370495;32;317847;-82
2023/06/03 05:35:02;;;;;;;7.68;5.32;;;;;;;;;;4360433;32;317707;-82
2023/06/03 05:37:29;;;;;;;6.90;4.62;;;;;;;;;;4370796;32;317143;-82
2023/06/03 05:39:56;;;;;;;11.48;5.35;;;;;;;;;;4359891;32;330113;-85
2023/06/03 05:42:24;;;;;;;11.00;5.18;;;;;;;;;;4370923;32;317584;-85
2023/06/03 05:44:51;;;;;;;8.80;4.37;;;;;;;;;;4357308;32;317915;-86
2023/06/03 05:47:20;;;;;;;12.10;4.55;;;;;;;;;;4372782;32;317188;-82
2023/06/03 05:49:48;;;;;;;6.97;4.37;;;;;;;;;;4363809;32;317661;-80
2023/06/03 05:52:15;;;;;;;13.35;4.60;;;;;;;;;;4373397;32;316719;-84
2023/06/03 05:54:43;;;;;;;13.07;5.05;;;;;;;;;;4373638;32;317716;-84
2023/06/03 05:57:10;;;;;;;6.87;4.87;;;;;;;;;;4361999;32;350943;-87
2023/06/03 05:59:38;;;;;;;9.32;4.82;;;;;;;;;;4372974;32;316496;-87
2023/06/03 06:02:10;;;;;;;9.77;5.12;;;;;;;;;;4363377;32;316933;-87
2023/06/03 06:04:39;;;;;;;10.70;5.95;;;;;;;;;;4374030;32;316961;-85
2023/06/03 06:07:06;;;;;;;8.90;5.07;;;;;;;;;;4362488;32;318152;-85
2023/06/03 06:09:42;;;;;;;6.22;4.78;;;;;;;;;;4371372;32;316788;-88
2023/06/03 06:12:12;;;;;;;14.30;6.10;;;;;;;;;;4361567;32;316544;-90
2023/06/03 06:14:40;;;;;;;8.18;5.50;;;;;;;;;;4374349;32;317815;-87
2023/06/03 06:17:10;;;;;;;13.35;6.25;;;;;;;;;;4363998;32;316699;-94
2023/06/03 06:19:40;;;;;;;9.48;5.82;;;;;;;;;;4374237;32;317674;-87
2023/06/03 06:22:09;;;;;;;7.53;4.90;;;;;;;;;;4361459;32;316883;-92
2023/06/03 06:24:38;;;;;;;7.50;5.50;;;;;;;;;;4372765;32;316569;-94
2023/06/03 06:27:07;;;;;;;11.60;5.68;;;;;;;;;;4361396;32;316834;-91
2023/06/03 06:29:35;;;;;;;15.07;6.22;;;;;;;;;;4370902;32;338126;-88
2023/06/03 06:32:04;;;;;;;10.82;5.70;;;;;;;;;;4363202;32;317685;-83
2023/06/03 06:34:32;;;;;;;12.50;5.80;;;;;;;;;;4373522;32;317847;-84
2023/06/03 06:37:01;;;;;;;8.07;5.43;;;;;;;;;;4359381;32;317964;-80
2023/06/03 06:39:49;;;;;;;7.22;5.37;;;;;;;;;;4371647;32;316782;-79
2023/06/03 06:42:27;;;;;;;7.25;5.72;;;;;;;;;;4360213;32;415858;-82
2023/06/03 06:44:55;;;;;;;11.27;5.50;;;;;;;;;;4358118;32;317187;-80
2023/06/03 06:47:23;;;;;;;7.45;5.85;;;;;;;;;;4372934;32;318109;-80
2023/06/03 06:49:52;;;;;;;5.87;5.22;;;;;;;;;;4361667;32;316927;-76
2023/06/03 06:52:22;;;;;;;6.57;4.95;;;;;;;;;;4371589;32;353848;-76
2023/06/03 06:54:50;;;;;;;6.10;4.25;;;;;;;;;;4362223;32;316678;-84
2023/06/03 06:57:21;;;;;;;10.00;4.28;;;;;;;;;;4371914;32;316823;-75
2023/06/03 06:59:51;;;;;;;10.25;4.53;;;;;;;;;;4363205;32;317819;-77
2023/06/03 07:02:19;;;;;;;8.52;5.30;;;;;;;;;;4371667;32;317782;-76
2023/06/03 07:04:47;;;;;;;6.50;4.78;;;;;;;;;;4371829;32;317001;-77
2023/06/03 07:07:14;;;;;;;5.00;4.22;;;;;;;;;;4372686;32;316732;-77
2023/06/03 07:09:44;;;;;;;6.28;4.80;;;;;;;;;;4372319;32;316982;-75
2023/06/03 07:12:12;;;;;;;8.75;4.35;;;;;;;;;;4362722;32;317168;-76
2023/06/03 07:14:39;;;;;;;7.70;5.62;;;;;;;;;;4372877;32;316882;-75
2023/06/03 07:17:07;;;;;;;10.15;6.18;;;;;;;;;;4362153;32;316866;-76
2023/06/03 07:19:37;;;;;;;7.47;5.28;;;;;;;;;;4372820;32;317777;-82
2023/06/03 07:22:06;;;;;;;7.10;4.70;;;;;;;;;;4361310;32;316739;-76
2023/06/03 07:24:35;;;;;;;9.02;4.95;;;;;;;;;;4372164;32;316724;-75
2023/06/03 07:27:06;;;;;;;6.70;5.32;;;;;;;;;;4362399;32;317375;-79
2023/06/03 07:29:38;;;;;;;5.72;4.65;;;;;;;;;;4371520;32;316832;-85
2023/06/03 07:32:11;;;;;;;9.60;5.13;;;;;;;;;;4358604;32;317069;-76
2023/06/03 07:34:44;;;;;;;6.05;4.68;;;;;;;;;;4373965;32;316751;-82
2023/06/03 07:37:14;;;;;;;12.13;5.30;;;;;;;;;;4356581;32;316196;-82
2023/06/03 07:39:43;;;;;;;9.65;4.85;;;;;;;;;;4372757;32;317889;-81
2023/06/03 07:42:20;;;;;;;10.10;5.07;;;;;;;;;;4361750;32;316886;-85
2023/06/03 07:44:49;;;;;;;8.07;5.37;;;;;;;;;;4362229;32;317726;-82
2023/06/03 07:47:18;;;;;;;7.18;4.32;;;;;;;;;;4369450;32;332562;-86
2023/06/03 07:49:47;;;;;;;7.45;5.20;;;;;;;;;;4370024;32;316518;-81
2023/06/03 07:52:21;;;;;;;6.40;4.50;;;;;;;;;;4364666;32;416233;-82
2023/06/03 07:54:48;;;;;;;7.57;4.37;;;;;;;;;;4361879;32;316884;-82
2023/06/03 07:57:18;;;;;;;9.05;5.10;;;;;;;;;;4369519;32;316747;-82
2023/06/03 07:59:52;;;;;;;8.10;4.70;;;;;;;;;;4369718;32;339638;-82
2023/06/03 08:02:20;;;;;;;6.87;4.47;;;;;;;;;;4363248;32;416068;-82
2023/06/03 08:04:49;;;;;;;7.95;4.97;;;;;;;;;;4356092;32;327204;-84
2023/06/03 08:07:17;;;;;;;8.82;4.80;;;;;;;;;;4369986;32;319893;-80
2023/06/03 08:09:44;;;;;;;10.63;5.80;;;;;;;;;;4371100;32;316837;-88
2023/06/03 08:12:12;;;;;;;10.15;5.60;;;;;;;;;;4364031;32;417182;-84
2023/06/03 08:14:41;;;;;;;8.77;5.55;;;;;;;;;;4371226;32;317934;-80
2023/06/03 08:17:10;;;;;;;8.50;4.97;;;;;;;;;;4374246;32;316889;-84
2023/06/03 08:19:38;;;;;;;7.72;5.30;;;;;;;;;;4385756;32;355971;-84
2023/06/03 08:22:27;;;;;;;11.88;5.60;;;;;;;;;;4375045;32;316848;-84
2023/06/03 08:24:54;;;;;;;6.22;4.85;;;;;;;;;;4374908;32;316694;-86
2023/06/03 08:27:22;;;;;;;14.75;5.37;;;;;;;;;;4385652;32;316945;-90
2023/06/03 08:29:52;;;;;;;7.18;4.40;;;;;;;;;;4376676;32;317992;-84
2023/06/03 08:32:19;;;;;;;8.50;5.22;;;;;;;;;;4386603;32;316912;-84
2023/06/03 08:34:47;;;;;;;7.95;5.50;;;;;;;;;;4382091;32;317070;-85
2023/06/03 08:37:15;;;;;;;8.32;4.80;;;;;;;;;;4385786;32;339154;-86
2023/06/03 08:39:42;;;;;;;6.30;4.37;;;;;;;;;;4387196;32;317011;-91
2023/06/03 08:42:13;;;;;;;7.70;4.95;;;;;;;;;;4375565;32;316837;-83
2023/06/03 08:44:48;;;;;;;6.78;5.07;;;;;;;;;;4385280;32;316870;-84
2023/06/03 08:47:26;;;;;;;4.70;4.22;;;;;;;;;;4374085;32;415840;-87
2023/06/03 08:50:00;;;;;;;6.60;4.53;;;;;;;;;;4375591;32;316893;-83
2023/06/03 08:52:34;;;;;;;15.30;4.82;;;;;;;;;;4384765;32;316909;-83
2023/06/03 08:55:02;;;;;;;5.07;4.35;;;;;;;;;;4376626;32;317874;-84
2023/06/03 08:57:34;;;;;;;8.63;4.60;;;;;;;;;;4385795;32;316778;-83
2023/06/03 09:00:05;;;;;;;15.40;4.97;;;;;;;;;;4375387;32;316773;-88
2023/06/03 09:02:35;;;;;;;12.48;4.80;;;;;;;;;;4385149;32;317704;-83
2023/06/03 09:05:04;;;;;;;6.20;4.03;;;;;;;;;;4374735;32;318282;-84
2023/06/03 09:07:32;;;;;;;11.95;4.32;;;;;;;;;;4386235;32;316817;-84
2023/06/03 09:10:02;;;;;;;3.97;3.10;;;;;;;;;;4374134;32;318084;-87
2023/06/03 09:12:32;;;;;;;9.05;3.83;;;;;;;;;;4385357;32;316913;-85
2023/06/03 09:15:00;;;;;;;4.40;3.33;;;;;;;;;;4374393;32;316805;-85
2023/06/03 09:17:28;;;;;;;11.98;3.78;;;;;;;;;;4385763;32;316992;-84
2023/06/03 09:20:01;;;;;;;9.48;4.00;;;;;;;;;;4374624;32;317947;-85
2023/06/03 09:22:29;;;;;;;11.05;4.43;;;;;;;;;;4384938;32;316670;-84
2023/06/03 09:24:57;;;;;;;6.95;4.07;;;;;;;;;;4376026;32;317781;-85
2023/06/03 09:27:26;;;;;;;5.12;3.58;;;;;;;;;;4386671;32;316905;-84
2023/06/03 09:29:55;;;;;;;7.00;3.78;;;;;;;;;;4376503;32;317165;-86
2023/06/03 09:32:22;;;;;;;4.25;3.15;;;;;;;;;;4385383;32;317081;-84
2023/06/03 09:34:50;;;;;;;7.07;4.28;;;;;;;;;;4376400;32;317646;-85
2023/06/03 09:37:19;;;;;;;5.43;3.62;;;;;;;;;;4385895;32;316720;-85
2023/06/03 09:39:48;;;;;;;3.33;3.03;;;;;;;;;;4385040;32;316698;-84
2023/06/03 09:42:16;;;;;;;6.82;3.20;;;;;;;;;;4372857;32;415912;-85
2023/06/03 09:44:45;;;;;;;7.37;3.17;;;;;;;;;;4385768;32;317074;-84
2023/06/03 09:47:13;;;;;;;5.25;3.70;;;;;;;;;;4371724;32;415858;-85
2023/06/03 09:50:00;;;;;;;5.97;3.05;;;;;;;;;;4385504;32;316795;-83
2023/06/03 09:52:36;;;;;;;8.13;2.37;;;;;;;;;;4372413;32;415829;-86
2023/06/03 09:55:06;;;;;;;5.97;2.70;;;;;;;;;;4373376;32;317015;-85
2023/06/03 09:57:34;;;;;;;8.10;3.03;;;;;;;;;;4385897;32;315681;-83
2023/06/03 10:00:07;;;;;;;7.35;2.00;;;;;;;;;;4375198;32;316725;-84
2023/06/03 10:02:36;;;;;;;5.85;2.75;;;;;;;;;;4384791;32;338577;-83
2023/06/03 10:05:03;;;;;;;3.10;2.25;;;;;;;;;;4375288;32;316679;-82
2023/06/03 10:07:30;;;;;;;2.47;2.22;;;;;;;;;;4385785;32;316516;-85
2023/06/03 10:10:09;;;;;;;4.45;2.70;;;;;;;;;;4373148;32;316483;-83
2023/06/03 10:12:37;;;;;;;2.53;2.03;;;;;;;;;;4383692;32;316683;-86
2023/06/03 10:15:05;;;;;;;5.45;2.35;;;;;;;;;;4375873;32;316450;-84
2023/06/03 10:17:32;;;;;;;4.32;2.87;;;;;;;;;;4386047;32;316702;-83
2023/06/03 10:20:00;;;;;;;2.78;2.33;;;;;;;;;;4375508;32;316543;-83
2023/06/03 10:22:28;;;;;;;3.15;2.67;;;;;;;;;;4385405;32;316762;-82
2023/06/03 10:24:57;;;;;;;3.10;2.50;;;;;;;;;;4375108;32;316646;-83
2023/06/03 10:27:26;;;;;;;2.90;2.15;;;;;;;;;;4385799;32;316637;-85
2023/06/03 10:29:54;;;;;;;3.70;2.12;;;;;;;;;;4375807;32;316726;-86
2023/06/03 10:32:24;;;;;;;8.45;2.05;;;;;;;;;;4384416;32;348988;-82
2023/06/03 10:34:54;;;;;;;3.97;2.65;;;;;;;;;;4377674;32;364012;-86
2023/06/03 10:37:24;;;;;;;3.17;2.37;;;;;;;;;;4386928;32;316644;-84
2023/06/03 10:39:54;;;;;;;2.47;2.25;;;;;;;;;;4375465;32;363537;-86
2023/06/03 10:42:26;;;;;;;3.45;2.47;;;;;;;;;;4388693;32;316731;-86
2023/06/03 10:44:53;;;;;;;16.37;2.70;;;;;;;;;;4375356;32;316659;-86
2023/06/03 10:47:26;;;;;;;5.82;2.97;;;;;;;;;;4387557;32;318148;-85
2023/06/03 10:50:02;;;;;;;8.88;2.92;;;;;;;;;;4378594;32;316880;-86
2023/06/03 10:52:50;;;;;;;4.03;2.30;;;;;;;;;;4387300;32;316775;-82
2023/06/03 10:55:28;;;;;;;2.25;1.80;;;;;;;;;;4372447;32;418755;-83
2023/06/03 10:58:02;;;;;;;3.33;2.00;;;;;;;;;;4377860;32;317087;-83
2023/06/03 11:00:56;;;;;;;4.20;2.78;;;;;;;;;;4386953;32;317097;-84
2023/06/03 11:03:25;;;;;;;5.03;2.00;;;;;;;;;;4372422;32;417049;-84
2023/06/03 11:06:22;;;;;;;4.18;2.30;;;;;;;;;;4370975;32;322868;-84
2023/06/03 11:09:02;;;;;;;8.68;2.15;;;;;;;;;;4363352;32;316689;-85
2023/06/03 11:11:58;;;;;;;5.43;1.98;;;;;;;;;;4387191;32;316871;-84
2023/06/03 11:15:06;;;;;;;4.55;2.15;;;;;;;;;;4373455;32;417430;-84
2023/06/03 11:17:36;;;;;;;10.23;1.92;;;;;;;;;;4375055;32;417178;-84
2023/06/03 11:20:04;;;;;;;4.05;2.03;;;;;;;;;;4376390;32;317899;-84
2023/06/03 11:22:43;;;;;;;4.62;2.35;;;;;;;;;;4385450;32;357763;-84
2023/06/03 11:25:28;;;;;;;2.60;1.95;;;;;;;;;;4377087;32;316794;-84
2023/06/03 11:28:34;;;;;;;2.20;1.50;;;;;;;;;;4377476;32;316626;-84
2023/06/03 11:31:03;;;;;;;5.27;1.97;;;;;;;;;;4375304;32;316829;-84
2023/06/03 11:33:32;;;;;;;3.97;2.15;;;;;;;;;;4386588;32;317019;-84
2023/06/03 11:36:29;;;;;;;3.75;2.25;;;;;;;;;;4376192;32;316833;-84
2023/06/03 11:39:00;;;;;;;6.22;2.53;;;;;;;;;;4376722;32;316783;-84
2023/06/03 11:42:01;;;;;;;2.72;2.33;;;;;;;;;;4387469;32;316564;-84
2023/06/03 11:44:29;;;;;;;4.53;2.22;;;;;;;;;;4373127;32;417398;-84
2023/06/03 11:46:57;;;;;;;3.53;1.92;;;;;;;;;;4377170;32;316691;-84
2023/06/03 11:49:26;;;;;;;2.62;2.12;;;;;;;;;;4385360;32;315521;-84
2023/06/03 11:51:58;;;;;;;2.83;2.25;;;;;;;;;;4376574;32;316866;-84
2023/06/03 11:54:26;;;;;;;7.65;3.10;;;;;;;;;;4387762;32;322622;-84
2023/06/03 11:56:57;;;;;;;3.85;2.78;;;;;;;;;;4377716;32;316889;-84
2023/06/03 11:59:32;;;;;;;9.13;2.42;;;;;;;;;;4385328;32;316644;-84
2023/06/03 12:02:00;;;;;;;4.32;2.33;;;;;;;;;;4375157;32;316714;-84
2023/06/03 12:04:29;;;;;;;3.47;2.22;;;;;;;;;;4387181;32;316616;-84
2023/06/03 12:06:58;;;;;;;4.43;1.90;;;;;;;;;;4375635;32;330795;-84
2023/06/03 12:09:27;;;;;;;3.20;2.42;;;;;;;;;;4387453;32;316579;-84
2023/06/03 12:11:55;;;;;;;3.45;1.65;;;;;;;;;;4375850;32;316741;-84
2023/06/03 12:14:28;;;;;;;8.15;1.90;;;;;;;;;;4386361;32;316737;-84
2023/06/03 12:16:58;;;;;;;3.97;1.87;;;;;;;;;;4375945;32;316955;-80
2023/06/03 12:19:25;;;;;;;3.55;1.67;;;;;;;;;;4386431;32;316854;-77
2023/06/03 12:21:59;;;;;;;7.97;2.00;;;;;;;;;;4375537;32;316688;-79
2023/06/03 12:24:31;;;;;;;5.25;2.17;;;;;;;;;;4382063;32;316926;-78
2023/06/03 12:27:14;;;;;;;5.12;1.55;;;;;;;;;;4375987;32;315773;-80
2023/06/03 12:29:43;;;;;;;3.03;2.03;;;;;;;;;;4386694;32;315549;-77
2023/06/03 12:32:11;;;;;;;5.62;1.87;;;;;;;;;;4374903;32;316879;-83
2023/06/03 12:34:39;;;;;;;3.20;1.95;;;;;;;;;;4387314;32;316881;-83
2023/06/03 12:37:09;;;;;;;2.72;1.90;;;;;;;;;;4376075;32;317063;-83
2023/06/03 12:39:49;;;;;;;3.22;2.00;;;;;;;;;;4386702;32;316658;-83
2023/06/03 12:42:18;;;;;;;2.85;1.87;;;;;;;;;;4372729;32;417116;-83
2023/06/03 12:44:47;;;;;;;7.40;2.08;;;;;;;;;;4385819;32;316747;-83
2023/06/03 12:47:15;;;;;;;3.75;2.45;;;;;;;;;;4370404;32;416045;-83
2023/06/03 12:49:43;;;;;;;4.70;1.95;;;;;;;;;;4384326;32;316987;-83
2023/06/03 12:52:20;;;;;;;2.30;1.70;;;;;;;;;;4375610;32;317042;-83
2023/06/03 12:54:50;;;;;;;2.00;1.33;;;;;;;;;;4375181;32;317102;-84
2023/06/03 12:57:17;;;;;;;2.90;1.70;;;;;;;;;;4385561;32;316449;-83
2023/06/03 13:00:04;;;;;;;1.52;1.33;;;;;;;;;;4386936;32;317006;-82
2023/06/03 13:02:31;;;;;;;5.37;1.75;;;;;;;;;;4371312;32;419416;-82
2023/06/03 13:05:00;;;;;;;3.75;1.90;;;;;;;;;;4376445;32;316961;-85
2023/06/03 13:07:29;;;;;;;2.53;1.90;;;;;;;;;;4385739;32;316719;-82
2023/06/03 13:10:00;;;;;;;8.27;2.08;;;;;;;;;;4375567;32;316642;-82
2023/06/03 13:12:27;;;;;;;4.07;2.10;;;;;;;;;;4385082;32;316658;-82
2023/06/03 13:14:55;;;;;;;8.75;2.03;;;;;;;;;;4374735;32;339585;-82
2023/06/03 13:17:22;;;;;;;2.65;1.73;;;;;;;;;;4385133;32;316857;-84
2023/06/03 13:19:50;;;;;;;7.28;2.03;;;;;;;;;;4376053;32;316574;-85
2023/06/03 13:22:19;;;;;;;3.12;1.90;;;;;;;;;;4386245;32;316733;-84
2023/06/03 13:24:48;;;;;;;4.35;1.80;;;;;;;;;;4385240;32;316656;-84
2023/06/03 13:27:16;;;;;;;2.47;1.90;;;;;;;;;;4373186;32;416101;-84
2023/06/03 13:29:43;;;;;;;4.43;1.60;;;;;;;;;;4385516;32;317916;-84
2023/06/03 13:32:11;;;;;;;2.47;1.73;;;;;;;;;;4376263;32;316557;-84
2023/06/03 13:34:40;;;;;;;2.85;1.58;;;;;;;;;;4386656;32;317056;-86
2023/06/03 13:37:08;;;;;;;3.58;1.70;;;;;;;;;;4375517;32;317024;-82
2023/06/03 13:39:36;;;;;;;2.22;1.98;;;;;;;;;;4386770;32;316836;-81
2023/06/03 13:42:06;;;;;;;3.55;1.80;;;;;;;;;;4375331;32;316778;-85
2023/06/03 13:44:34;;;;;;;2.00;1.67;;;;;;;;;;4386450;32;316639;-81
2023/06/03 13:47:04;;;;;;;3.47;1.65;;;;;;;;;;4375206;32;316996;-83
2023/06/03 13:49:31;;;;;;;3.85;1.30;;;;;;;;;;4385516;32;316547;-81
2023/06/03 13:51:58;;;;;;;3.72;1.75;;;;;;;;;;4375657;32;316916;-82
2023/06/03 13:54:26;;;;;;;3.03;1.92;;;;;;;;;;4384952;32;334548;-82
2023/06/03 13:56:54;;;;;;;3.22;1.75;;;;;;;;;;4374193;32;316798;-83
2023/06/03 13:59:24;;;;;;;7.65;2.25;;;;;;;;;;4385506;32;316610;-82
2023/06/03 14:01:53;;;;;;;2.87;1.23;;;;;;;;;;4374015;32;316730;-83
2023/06/03 14:04:20;;;;;;;3.72;1.80;;;;;;;;;;4383851;32;317026;-83
2023/06/03 14:06:48;;;;;;;2.17;1.67;;;;;;;;;;4376562;32;316844;-83
2023/06/03 14:09:16;;;;;;;3.53;1.60;;;;;;;;;;4387394;32;316792;-83
2023/06/03 14:11:43;;;;;;;6.95;1.98;;;;;;;;;;4388770;32;316656;-82
2023/06/03 14:14:10;;;;;;;2.65;1.77;;;;;;;;;;4377752;32;317039;-82
2023/06/03 14:16:39;;;;;;;3.78;1.83;;;;;;;;;;4388575;32;316964;-82
2023/06/03 14:19:07;;;;;;;2.80;1.77;;;;;;;;;;4379207;32;317395;-85
2023/06/03 14:21:34;;;;;;;3.33;2.00;;;;;;;;;;4387311;32;316924;-82
2023/06/03 14:24:01;;;;;;;2.85;2.15;;;;;;;;;;4377343;32;316804;-82
2023/06/03 14:26:35;;;;;;;3.30;1.83;;;;;;;;;;4388172;32;316985;-82
2023/06/03 14:29:03;;;;;;;3.47;2.05;;;;;;;;;;4378200;32;316825;-84
2023/06/03 14:31:30;;;;;;;2.35;2.10;;;;;;;;;;4388071;32;317040;-85
2023/06/03 14:33:59;;;;;;;4.35;2.40;;;;;;;;;;4376907;32;316831;-85
2023/06/03 14:36:27;;;;;;;2.33;1.65;;;;;;;;;;4388458;32;316826;-82
2023/06/03 14:38:54;;;;;;;2.47;2.00;;;;;;;;;;4377073;32;316868;-82
2023/06/03 14:41:22;;;;;;;5.78;2.55;;;;;;;;;;4388201;32;316734;-83
2023/06/03 14:43:50;;;;;;;3.70;2.90;;;;;;;;;;4375420;32;352995;-83
2023/06/03 14:46:17;;;;;;;4.68;3.22;;;;;;;;;;4388671;32;316745;-83
2023/06/03 14:48:45;;;;;;;3.40;2.65;;;;;;;;;;4386041;32;316803;-84